Flight Track Log - Related Links

Times and Time Zones

All times are in EDT time to prevent confusion due to time zone crossing. See the SWA1881 flight status page for this flight to view local times or setup timezone preferences in your user account.

Time Position Orientation Groundspeed Altitude Reporting Facility
EDT Latitude Longitude Course Direction KTS MPH feet Rate Location/Type
Fri 07:46:29 PM 36.0500 -86.6833 180° South 197 227 3,100  Level Nashville TRACON
Fri 07:47:35 PM 35.9833 -86.7000 191° South 278 320 6,000 3,000 Climbing Nashville TRACON
Fri 07:48:35 PM 35.9069 -86.7128 188° South 286 329 9,400 3,300 Climbing Memphis Center
Fri 07:49:35 PM 35.8197 -86.7242 186° South 307 353 12,600 3,650 Climbing Memphis Center
Fri 07:50:35 PM 35.7281 -86.7283 182° South 329 379 16,700 3,327 Climbing Memphis Center
Fri 07:52:57 PM 35.4914 -86.6992 174° South 373 429 23,800 2,703 Climbing Atlanta Center
Fri 07:53:57 PM 35.3789 -86.6853 174° South 378 435 25,800 1,950 Climbing Atlanta Center
Fri 07:54:57 PM 35.2644 -86.6714 174° South 388 447 27,700 1,750 Climbing Atlanta Center
Fri 07:55:57 PM 35.1500 -86.6553 173° South 408 470 29,300 1,600 Climbing Atlanta Center
Fri 07:56:57 PM 35.0294 -86.6436 175° South 420 483 30,900 1,800 Climbing Atlanta Center
Fri 07:57:57 PM 34.9150 -86.6275 173° South 425 489 32,900 1,650 Climbing Atlanta Center
Fri 07:58:57 PM 34.7961 -86.6136 175° South 425 489 34,200 1,200 Climbing Atlanta Center
Fri 07:59:57 PM 34.6756 -86.5975 174° South 425 489 35,300 1,200 Climbing Atlanta Center
Fri 08:00:57 PM 34.5569 -86.5836 174° South 430 495 36,600 850 Climbing Atlanta Center
Fri 08:01:57 PM 34.4342 -86.5650 173° South 435 501 37,000 200 Climbing Atlanta Center
Fri 08:02:57 PM 34.3136 -86.5436 172° South 435 501 37,000  Level Atlanta Center
Fri 08:03:57 PM 34.1950 -86.5225 172° South 441 507 37,000  Level Atlanta Center
Fri 08:04:57 PM 34.0722 -86.5014 172° South 441 507 37,000  Level Atlanta Center
Fri 08:05:57 PM 33.9558 -86.4806 172° South 441 507 37,000  Level Atlanta Center
Fri 08:06:57 PM 33.8331 -86.4597 172° South 441 507 37,000  Level Atlanta Center
Fri 08:07:57 PM 33.7144 -86.4389 172° South 441 507 37,000  Level Atlanta Center
Fri 08:08:57 PM 33.5939 -86.4181 172° South 441 507 37,000  Level Atlanta Center
Fri 08:09:57 PM 33.4878 -86.4050 174° South 441 507 37,000  Level Atlanta Center
Fri 08:10:57 PM 33.3692 -86.3819 171° South 441 507 37,000  Level Atlanta Center
Fri 08:11:57 PM 33.2486 -86.3589 171° South 446 513 37,000  Level Atlanta Center
Fri 08:12:57 PM 33.1300 -86.3383 172° South 441 507 37,000  Level Atlanta Center
Fri 08:13:57 PM 33.0092 -86.3178 172° South 441 507 37,000 -100 Level Atlanta Center
Fri 08:14:57 PM 32.8906 -86.2975 172° South 441 507 36,800 -600 Descending Atlanta Center
Fri 08:15:57 PM 32.7719 -86.2794 173° South 441 507 35,800 -900 Descending Atlanta Center
Fri 08:16:57 PM 32.6514 -86.2567 171° South 441 507 35,000 -400 Descending Atlanta Center
Fri 08:17:57 PM 32.5347 -86.2389 173° South 441 507 35,000 -250 Level Atlanta Center
Fri 08:18:57 PM 32.4119 -86.2186 172° South 441 507 34,500 -750 Descending Atlanta Center
Fri 08:19:57 PM 32.2975 -86.2011 173° South 441 507 33,500 -1,193 Descending Atlanta Center
Fri 08:21:53 PM 32.0825 -86.1633 172° South 391 450 31,000 -1,670 Descending Jacksonville Center
Fri 08:22:53 PM 31.9828 -86.1478 172° South 398 458 28,600 -2,450 Descending Jacksonville Center
Fri 08:23:53 PM 31.8789 -86.1292 171° South 386 444 26,100 -2,300 Descending Jacksonville Center
Fri 08:24:53 PM 31.7769 -86.1136 173° South 381 438 24,000 -1,050 Descending Jacksonville Center
Fri 08:25:53 PM 31.6750 -86.0953 171° South 381 438 24,000 -750 Level Jacksonville Center
Fri 08:26:53 PM 31.5775 -86.0797 172° South 370 426 22,500 -1,950 Descending Jacksonville Center
Fri 08:27:53 PM 31.4756 -86.0642 173° South 370 426 20,100 -2,545 Descending Jacksonville Center
Fri 08:27:59 PM 31.4547 -86.0586 167° South 368 423 19,700 -2,100 Descending Jacksonville Center
Fri 08:28:53 PM 31.3778 -86.0461 172° South 370 426 18,000 -2,164 Descending Jacksonville Center
Fri 08:29:00 PM 31.3611 -86.0456 178° South 351 404 17,500 -1,700 Descending Jacksonville Center
Fri 08:29:53 PM 31.2842 -86.0308 171° South 359 413 16,300 -1,700 Descending Jacksonville Center
Fri 08:30:00 PM 31.2675 -86.0278 171° South 330 380 15,800 -1,700 Descending Jacksonville Center
Fri 08:30:53 PM 31.1969 -86.0158 172° South 342 394 14,600 -1,574 Descending Jacksonville Center
Fri 08:31:01 PM 31.1783 -86.0103 166° South 310 357 14,200 -1,600 Descending Jacksonville Center
Fri 08:31:53 PM 31.1158 -86.0011 173° South 321 369 13,000 -1,600 Descending Jacksonville Center
Fri 08:32:01 PM 31.0972 -85.9931 160° South 297 342 12,600 -1,600 Descending Jacksonville Center
Fri 08:32:53 PM 31.0369 -85.9814 171° South 309 356 11,400 -1,286 Descending Jacksonville Center
Fri 08:33:53 PM 30.9622 -85.9619 167° South 291 335 10,200 -1,050 Descending Jacksonville Center
Fri 08:34:53 PM 30.8939 -85.9478 170° South 272 313 9,300 -1,100 Descending Jacksonville Center
Fri 08:35:53 PM 30.8231 -85.9381 173° South 260 299 8,000 -1,300 Descending Jacksonville Center
Fri 08:36:53 PM 30.7544 -85.9214 168° South 255 293 6,700 -1,300 Descending Jacksonville Center
Fri 08:37:53 PM 30.6861 -85.9072 170° South 255 293 5,400 -950 Descending Jacksonville Center
Fri 08:38:53 PM 30.6194 -85.8931 170° South 255 293 4,800 -650 Descending Jacksonville Center
Fri 08:39:53 PM 30.5656 -85.8842 172° South 233 268 4,100 -900 Descending Jacksonville Center
Fri 08:40:53 PM 30.5117 -85.8631 161° South 214 246 3,000 -1,050 Descending Jacksonville Center
Fri 08:41:53 PM 30.4622 -85.8397 158° South 202 232 2,000 -950 Descending Jacksonville Center
Fri 08:42:53 PM 30.4167 -85.8217 161° South 187 215 1,100 -850 Descending Jacksonville Center
Fri 08:43:53 PM 30.3794 -85.8036 157° South 165 190 300 -500 Descending Jacksonville Center
Fri 08:44:53 PM 30.3319 -85.7828 159° South 165 190 100 -200 Descending Jacksonville Center
Fri 08:46:00 PM 30.3500 -85.7833 337° Northwest  Level FlightAware Approximate

Login

Don't have an account? Register now (free) for customized features, flight alerts, and more!